M/V Alton St. Amant — WDE7604 — position and weather

sailwx.info

Track history (hours):
 
Tides and Currents Weather Stations Pressure Air Temp Water Temp Dewpoint Dewpoint Depression Visibility Wind Speed Wind Dir Waves Ship Positions

M/V Alton St. Amant

Owner: The Barge Investment Group Five, L.L.C., Harahan, LA. More information available from US FCC via Universal Licensing System and Coast Guard Vessel Documentation Center.

Last reported at 2015-Mar-29 09:10 UTC. Time now 2015-Mar-30 23:05 UTC.
Position N 29°56' W 090°11'.

Length 25 m; draft 2.9 m.

Type: Towing. MMSI: 367395270.

Date/timePositionNaut miles runAvg speedWind from/ knotsBaromVisibWave heightAir tempDewpointWater temp
2015-Mar-29 09:10N 29°56' W 090°11'2 2.8
2015-Mar-29 08:31N 29°57' W 090°08'3 3.4
2015-Mar-29 07:33N 29°55' W 090°05'4 3.5
2015-Mar-29 06:32N 29°57' W 090°02'4 3.6
2015-Mar-29 05:30N 29°56' W 089°58'2 1.6
2015-Mar-29 04:25N 29°55' W 089°56'0 0.2
2015-Mar-29 03:21N 29°56' W 089°57'0 0.0
2015-Mar-29 02:32N 29°56' W 089°57'0 0.0
2015-Mar-29 01:33N 29°56' W 089°57'0 0.0
2015-Mar-29 00:31N 29°56' W 089°57'0 0.0
2015-Mar-28 23:31N 29°56' W 089°57'0 0.0
2015-Mar-27 23:21N 29°55' W 089°56'2 1.9
2015-Mar-27 22:15N 29°56' W 089°59'4 5.6
2015-Mar-27 21:32N 29°56' W 090°03'6 4.9
2015-Mar-27 20:22N 29°57' W 090°10'3 0.1
2015-Mar-26 17:28N 29°55' W 090°07'4 3.7
2015-Mar-26 16:25N 29°57' W 090°04'3 3.8
2015-Mar-26 15:31N 29°56' W 089°60'0 0.3
2015-Mar-26 14:26N 29°56' W 090°00'2 1.8
2015-Mar-26 13:27N 29°55' W 089°58'8 4.2
2015-Mar-26 11:31N 29°55' W 090°08'1 0.0
2015-Mar-25 15:25N 29°54' W 090°07'0 0.5
2015-Mar-25 14:28N 29°54' W 090°07'0 0.1
2015-Mar-25 13:26N 29°54' W 090°07'0 0.0
2015-Mar-25 12:18N 29°54' W 090°07'0 0.0
2015-Mar-25 11:21N 29°54' W 090°07'0 0.0
2015-Mar-25 10:16N 29°54' W 090°07'0 0.0
2015-Mar-25 09:26N 29°54' W 090°07'0 0.0
2015-Mar-25 08:30N 29°54' W 090°07'0 0.0
2015-Mar-25 07:32N 29°54' W 090°07'0 0.0
2015-Mar-25 06:33N 29°54' W 090°07'0 0.0
2015-Mar-25 05:33N 29°54' W 090°07'0 0.0
2015-Mar-25 04:32N 29°54' W 090°07'  
Track history (hours):
 
Tides and Currents Weather Stations Pressure Air Temp Water Temp Dewpoint Dewpoint Depression Visibility Wind Speed Wind Dir Waves Ship Positions

M/V Alton St. Amant

Owner: The Barge Investment Group Five, L.L.C., Harahan, LA. More information available from US FCC via Universal Licensing System and Coast Guard Vessel Documentation Center.

Last reported at 2015-Mar-29 09:10 UTC. Time now 2015-Mar-30 23:05 UTC.
Position N 29°56' W 090°11'.

Length 25 m; draft 2.9 m.

Type: Towing. MMSI: 367395270.

Date/timePositionNaut miles runAvg speedWind from/ knotsBaromVisibWave heightAir tempDewpointWater temp
2015-Mar-29 09:10N 29°56' W 090°11'2 2.8
2015-Mar-29 08:31N 29°57' W 090°08'3 3.4
2015-Mar-29 07:33N 29°55' W 090°05'4 3.5
2015-Mar-29 06:32N 29°57' W 090°02'4 3.6
2015-Mar-29 05:30N 29°56' W 089°58'2 1.6
2015-Mar-29 04:25N 29°55' W 089°56'0 0.2
2015-Mar-29 03:21N 29°56' W 089°57'0 0.0
2015-Mar-29 02:32N 29°56' W 089°57'0 0.0
2015-Mar-29 01:33N 29°56' W 089°57'0 0.0
2015-Mar-29 00:31N 29°56' W 089°57'0 0.0
2015-Mar-28 23:31N 29°56' W 089°57'0 0.0
2015-Mar-27 23:21N 29°55' W 089°56'2 1.9
2015-Mar-27 22:15N 29°56' W 089°59'4 5.6
2015-Mar-27 21:32N 29°56' W 090°03'6 4.9
2015-Mar-27 20:22N 29°57' W 090°10'3 0.1
2015-Mar-26 17:28N 29°55' W 090°07'4 3.7
2015-Mar-26 16:25N 29°57' W 090°04'3 3.8
2015-Mar-26 15:31N 29°56' W 089°60'0 0.3
2015-Mar-26 14:26N 29°56' W 090°00'2 1.8
2015-Mar-26 13:27N 29°55' W 089°58'8 4.2
2015-Mar-26 11:31N 29°55' W 090°08'1 0.0
2015-Mar-25 15:25N 29°54' W 090°07'0 0.5
2015-Mar-25 14:28N 29°54' W 090°07'0 0.1
2015-Mar-25 13:26N 29°54' W 090°07'0 0.0
2015-Mar-25 12:18N 29°54' W 090°07'0 0.0
2015-Mar-25 11:21N 29°54' W 090°07'0 0.0
2015-Mar-25 10:16N 29°54' W 090°07'0 0.0
2015-Mar-25 09:26N 29°54' W 090°07'0 0.0
2015-Mar-25 08:30N 29°54' W 090°07'0 0.0
2015-Mar-25 07:32N 29°54' W 090°07'0 0.0
2015-Mar-25 06:33N 29°54' W 090°07'0 0.0
2015-Mar-25 05:33N 29°54' W 090°07'0 0.0
2015-Mar-25 04:32N 29°54' W 090°07'  

Dump ship's entire track history